METAR AND TAF INFORMATION
METAR FOR LEDA
ADDS - METARS form results

(1053 UTC 23 May 2019)
Data provider http://aviationweather.gov/metar/data/
 
METAR text: LEDA 231030Z 18004KT 120V290 CAVOK 24/08 Q1017
Conditions at: LEDA (LLEIDA-ALGUAIRE , ES) observed 1030 UTC 23 May 2019
Temperature: 24.0°C (75°F)
Dewpoint: 8.0°C (46°F) [RH = 36%]
Pressure (altimeter): 30.03 inches Hg (1017.0 mb)
Winds: from the S (180 degrees) at 5 MPH (4 knots; 2.1 m/s)
Visibility: 6 or more miles (10+ km)
Ceiling: ceiling and visibility are OK
Clouds: unknown
Weather: no significant weather observed at this time

METAR text: LEDA 231000Z 14004KT 070V210 CAVOK 24/07 Q1018
Conditions at: LEDA (LLEIDA-ALGUAIRE , ES) observed 1000 UTC 23 May 2019
Temperature: 24.0°C (75°F)
Dewpoint: 7.0°C (45°F) [RH = 34%]
Pressure (altimeter): 30.06 inches Hg (1018.0 mb)
Winds: from the SE (140 degrees) at 5 MPH (4 knots; 2.1 m/s)
Visibility: 6 or more miles (10+ km)
Ceiling: ceiling and visibility are OK
Clouds: unknown
Weather: no significant weather observed at this time

AIRPORT MAP

RUNWAY INFORMATION

AIRPORT FREQUENCIES

AIRPORT NEAR NAVIGATION AIDS